Time;durP1;ratioP1;P1;durP2;ratioP2;P2;SDS_P1;SDS_P2;PMS_P1;PMS_P2;Temp;Humidity;BMP_temperature;BMP_pressure;BME280_temperature;BME280_humidity;BME280_pressure;Samples;Min_cycle;Max_cycle;Signal;HPM_P1;HPM_P2
2024/04/17 00:00:39;;;;;;;5.53;2.60;;;7.00;99.90;;;;;;5353384;26;20536;-69
2024/04/17 00:03:09;;;;;;;8.90;3.03;;;7.00;99.90;;;;;;5353475;26;20493;-69
2024/04/17 00:05:37;;;;;;;5.00;2.33;;;7.00;99.90;;;;;;5351689;26;20866;-69
2024/04/17 00:08:07;;;;;;;7.07;2.10;;;6.90;99.90;;;;;;5353582;26;20543;-69
2024/04/17 00:10:37;;;;;;;5.23;2.00;;;6.90;99.90;;;;;;5354466;26;20541;-69
2024/04/17 00:13:08;;;;;;;5.93;2.17;;;6.90;99.90;;;;;;5352368;26;20441;-69
2024/04/17 00:15:35;;;;;;;4.57;2.10;;;6.90;99.90;;;;;;5348842;26;20499;-69
2024/04/17 00:18:05;;;;;;;7.87;2.07;;;6.90;99.90;;;;;;5349407;26;20508;-69
2024/04/17 00:20:33;;;;;;;5.40;2.47;;;6.80;99.90;;;;;;5350333;26;20553;-69
2024/04/17 00:23:02;;;;;;;4.97;2.53;;;6.80;99.90;;;;;;5349234;26;20494;-69
2024/04/17 00:25:30;;;;;;;6.23;2.23;;;6.80;99.90;;;;;;5350225;26;20493;-70
2024/04/17 00:28:02;;;;;;;5.93;2.47;;;6.80;99.90;;;;;;5349304;26;20531;-69
2024/04/17 00:30:30;;;;;;;5.60;2.80;;;6.80;99.90;;;;;;5347359;26;20514;-70
2024/04/17 00:33:00;;;;;;;4.70;3.43;;;6.70;99.90;;;;;;5349066;26;20452;-70
2024/04/17 00:35:28;;;;;;;9.27;2.83;;;6.70;99.90;;;;;;5350086;26;20472;-70
2024/04/17 00:37:58;;;;;;;6.10;2.40;;;6.70;99.90;;;;;;5349277;26;20455;-70
2024/04/17 00:40:26;;;;;;;6.80;2.07;;;6.70;99.90;;;;;;5350296;26;20501;-69
2024/04/17 00:42:56;;;;;;;7.43;2.33;;;6.70;99.90;;;;;;5349445;26;20457;-69
2024/04/17 00:45:30;;;;;;;10.63;3.10;;;6.70;99.90;;;;;;5349121;26;20441;-69
2024/04/17 00:48:00;;;;;;;9.43;3.03;;;6.70;99.90;;;;;;5350228;26;20745;-67
2024/04/17 00:50:29;;;;;;;4.80;2.00;;;6.70;99.90;;;;;;5350141;26;21001;-68
2024/04/17 00:52:59;;;;;;;5.60;2.20;;;6.70;99.90;;;;;;5349004;26;20497;-68
2024/04/17 00:55:27;;;;;;;8.57;2.90;;;6.70;99.90;;;;;;5350127;26;20467;-68
2024/04/17 00:57:59;;;;;;;6.47;2.90;;;6.70;99.90;;;;;;5348921;26;20441;-68
2024/04/17 01:00:29;;;;;;;8.13;2.83;;;6.60;99.90;;;;;;5349321;26;20562;-68
2024/04/17 01:02:59;;;;;;;6.70;3.07;;;6.60;99.90;;;;;;5349822;26;20462;-68
2024/04/17 01:05:27;;;;;;;5.90;2.60;;;6.60;99.90;;;;;;5349051;26;20500;-68
2024/04/17 01:07:57;;;;;;;7.60;2.70;;;6.60;99.90;;;;;;5348740;26;20450;-68
2024/04/17 01:10:24;;;;;;;8.13;2.60;;;6.60;99.90;;;;;;5346792;26;21004;-68
2024/04/17 01:12:54;;;;;;;6.60;2.33;;;6.60;99.90;;;;;;5348851;26;20555;-68
2024/04/17 01:15:22;;;;;;;11.33;2.77;;;6.60;99.90;;;;;;5346841;26;20456;-68
2024/04/17 01:17:55;;;;;;;7.63;3.43;;;6.60;99.90;;;;;;5348706;26;20441;-68
2024/04/17 01:20:22;;;;;;;6.17;2.50;;;6.60;99.90;;;;;;5349743;26;20498;-68
2024/04/17 01:22:53;;;;;;;5.40;2.43;;;6.60;99.90;;;;;;5348816;26;20445;-68
2024/04/17 01:25:23;;;;;;;11.20;2.97;;;6.60;99.90;;;;;;5349714;26;20965;-68
2024/04/17 01:27:53;;;;;;;7.07;2.17;;;6.50;99.90;;;;;;5349158;26;20445;-68
2024/04/17 01:30:20;;;;;;;5.77;2.90;;;6.50;99.90;;;;;;5348438;26;20452;-68
2024/04/17 01:32:50;;;;;;;6.50;3.43;;;6.50;99.90;;;;;;5348425;26;21068;-68
2024/04/17 01:35:17;;;;;;;6.67;2.30;;;6.50;99.90;;;;;;5346490;26;20471;-68
2024/04/17 01:37:47;;;;;;;7.00;3.40;;;6.50;99.90;;;;;;5348422;26;20531;-68
2024/04/17 01:40:15;;;;;;;6.20;2.60;;;6.50;99.90;;;;;;5349777;26;20460;-68
2024/04/17 01:42:47;;;;;;;7.83;2.77;;;6.50;99.90;;;;;;5348244;26;20442;-68
2024/04/17 01:45:15;;;;;;;6.47;2.77;;;6.50;99.90;;;;;;5349399;26;20817;-68
2024/04/17 01:47:45;;;;;;;7.83;2.30;;;6.50;99.90;;;;;;5346366;26;20557;-68
2024/04/17 01:50:12;;;;;;;7.00;2.83;;;6.50;99.90;;;;;;5346587;26;20544;-68
2024/04/17 01:52:42;;;;;;;8.47;2.10;;;6.50;99.90;;;;;;5348230;26;20446;-68
2024/04/17 01:55:09;;;;;;;6.70;2.20;;;6.50;99.90;;;;;;5348026;26;20438;-68
2024/04/17 01:57:39;;;;;;;10.10;3.07;;;6.50;99.90;;;;;;5348051;26;20499;-68
2024/04/17 02:00:10;;;;;;;6.47;2.40;;;6.50;99.90;;;;;;5347893;26;20498;-68
2024/04/17 02:02:40;;;;;;;9.90;2.80;;;6.40;99.90;;;;;;5348465;26;20549;-68
2024/04/17 02:05:08;;;;;;;6.90;2.73;;;6.40;99.90;;;;;;5348071;26;20570;-68
2024/04/17 02:07:38;;;;;;;5.53;2.33;;;6.40;99.90;;;;;;5346287;26;20773;-68
2024/04/17 02:10:06;;;;;;;6.80;2.70;;;6.40;99.90;;;;;;5347824;26;20463;-69
2024/04/17 02:12:36;;;;;;;6.43;2.70;;;6.40;99.90;;;;;;5347882;26;20457;-68
2024/04/17 02:15:04;;;;;;;6.17;2.60;;;6.40;99.90;;;;;;5347832;26;20556;-68
2024/04/17 02:17:36;;;;;;;8.37;2.77;;;6.40;99.90;;;;;;5347849;26;20519;-68
2024/04/17 02:20:05;;;;;;;5.20;3.00;;;6.40;99.90;;;;;;5348505;26;20451;-68
2024/04/17 02:22:35;;;;;;;8.13;2.27;;;6.30;99.90;;;;;;5347876;26;20451;-68
2024/04/17 02:25:03;;;;;;;6.87;2.20;;;6.30;99.90;;;;;;5347660;26;20469;-68
2024/04/17 02:27:33;;;;;;;10.03;2.73;;;6.30;99.90;;;;;;5347768;26;20559;-69
2024/04/17 02:30:00;;;;;;;4.87;2.27;;;6.30;99.90;;;;;;5347600;26;20460;-68
2024/04/17 02:32:30;;;;;;;8.23;2.77;;;6.30;99.90;;;;;;5347509;26;20536;-68
2024/04/17 02:35:00;;;;;;;8.63;2.53;;;6.30;99.90;;;;;;5348906;26;20441;-68
2024/04/17 02:37:30;;;;;;;8.20;2.47;;;6.30;99.90;;;;;;5346460;26;20487;-68
2024/04/17 02:39:58;;;;;;;8.30;2.50;;;6.30;99.90;;;;;;5347459;26;20509;-68
2024/04/17 02:42:27;;;;;;;8.60;2.90;;;6.30;99.90;;;;;;5347478;26;20501;-68
2024/04/17 02:44:55;;;;;;;5.37;2.37;;;6.30;99.90;;;;;;5347299;26;20536;-68
2024/04/17 02:47:25;;;;;;;9.70;2.73;;;6.30;99.90;;;;;;5347371;26;20500;-68
2024/04/17 02:49:52;;;;;;;9.97;3.10;;;6.20;99.90;;;;;;5345388;26;20475;-68
2024/04/17 02:52:24;;;;;;;7.00;2.80;;;6.20;99.90;;;;;;5347592;26;20965;-68
2024/04/17 02:54:52;;;;;;;7.73;2.63;;;6.20;99.90;;;;;;5348574;26;20419;-68
2024/04/17 02:57:22;;;;;;;7.77;2.70;;;6.20;99.90;;;;;;5347405;26;20442;-68
2024/04/17 02:59:50;;;;;;;10.27;3.40;;;6.10;99.90;;;;;;5345467;26;20476;-68
2024/04/17 03:02:20;;;;;;;4.73;2.30;;;6.20;99.90;;;;;;5345417;26;20560;-68
2024/04/17 03:04:47;;;;;;;11.13;4.43;;;6.10;99.90;;;;;;5347209;26;20780;-68
2024/04/17 03:07:18;;;;;;;5.27;2.40;;;6.10;99.90;;;;;;5347261;26;20450;-68
2024/04/17 03:09:50;;;;;;;7.87;2.63;;;6.10;99.90;;;;;;5345314;26;20818;-68
2024/04/17 03:12:20;;;;;;;13.50;3.13;;;6.10;99.90;;;;;;5348409;26;20403;-68
2024/04/17 03:14:48;;;;;;;6.83;2.67;;;6.10;99.90;;;;;;5348864;26;20452;-68
2024/04/17 03:17:18;;;;;;;7.93;2.50;;;6.00;99.90;;;;;;5351601;26;20526;-68
2024/04/17 03:19:45;;;;;;;8.20;2.47;;;6.00;99.90;;;;;;5348591;26;20509;-68
2024/04/17 03:22:15;;;;;;;8.70;2.43;;;6.00;99.90;;;;;;5347987;26;20461;-68
2024/04/17 03:24:43;;;;;;;6.40;2.37;;;6.00;99.90;;;;;;5347604;26;21003;-68
2024/04/17 03:27:15;;;;;;;5.87;3.10;;;6.00;99.90;;;;;;5347382;26;20492;-68
2024/04/17 03:29:43;;;;;;;5.47;3.17;;;6.00;99.90;;;;;;5347755;26;20459;-68
2024/04/17 03:32:13;;;;;;;5.13;2.50;;;6.00;99.90;;;;;;5346889;26;20499;-68
2024/04/17 03:34:40;;;;;;;8.03;2.53;;;5.90;99.90;;;;;;5344900;26;20450;-68
2024/04/17 03:37:11;;;;;;;7.93;2.37;;;6.00;99.90;;;;;;5346892;26;20458;-68
2024/04/17 03:39:41;;;;;;;6.03;3.40;;;5.90;99.90;;;;;;5346927;26;20803;-68
2024/04/17 03:42:10;;;;;;;10.73;3.07;;;5.90;99.90;;;;;;5346653;26;20497;-68
2024/04/17 03:44:43;;;;;;;8.90;2.53;;;5.90;99.90;;;;;;5346905;26;20999;-68
2024/04/17 03:47:13;;;;;;;7.77;2.83;;;5.90;99.90;;;;;;5347801;26;20525;-68
2024/04/17 03:49:43;;;;;;;8.67;3.17;;;5.90;99.90;;;;;;5347688;26;20465;-68
2024/04/17 03:52:11;;;;;;;8.33;2.50;;;5.80;99.90;;;;;;5349929;26;21054;-68
2024/04/17 03:54:41;;;;;;;7.77;3.30;;;5.80;99.90;;;;;;5349788;26;20441;-68
2024/04/17 03:57:11;;;;;;;6.33;2.80;;;5.80;99.90;;;;;;5349953;26;20510;-68
2024/04/17 03:59:40;;;;;;;9.77;2.80;;;5.80;99.90;;;;;;5349926;26;20456;-68
2024/04/17 04:02:10;;;;;;;8.00;2.80;;;5.80;99.90;;;;;;5348370;26;20490;-68
2024/04/17 04:04:39;;;;;;;5.30;2.23;;;5.80;99.90;;;;;;5351525;26;20402;-68
2024/04/17 04:07:09;;;;;;;7.73;2.70;;;5.80;99.90;;;;;;5350328;26;20988;-68
2024/04/17 04:09:37;;;;;;;8.63;2.90;;;5.70;99.90;;;;;;5349931;26;20880;-68
2024/04/17 04:12:08;;;;;;;9.30;3.13;;;5.70;99.90;;;;;;5349694;26;21048;-68
2024/04/17 04:14:35;;;;;;;8.83;3.73;;;5.80;99.90;;;;;;5349523;26;20500;-68
2024/04/17 04:17:07;;;;;;;7.63;3.63;;;5.80;99.90;;;;;;5349660;26;20500;-68
2024/04/17 04:19:35;;;;;;;6.37;3.30;;;5.80;99.90;;;;;;5350910;26;20583;-68
2024/04/17 04:22:05;;;;;;;7.10;2.90;;;5.70;99.90;;;;;;5349784;26;20496;-69
2024/04/17 04:24:32;;;;;;;11.20;3.47;;;5.70;99.90;;;;;;5353577;26;21029;-69
2024/04/17 04:27:02;;;;;;;10.57;3.80;;;5.70;99.90;;;;;;5351504;26;20454;-69
2024/04/17 04:29:30;;;;;;;8.80;3.27;;;5.70;99.90;;;;;;5351400;26;20473;-69
2024/04/17 04:32:00;;;;;;;10.00;3.63;;;5.70;99.90;;;;;;5351565;26;20448;-69
2024/04/17 04:34:30;;;;;;;6.53;3.30;;;5.70;99.90;;;;;;5349855;26;20445;-69
2024/04/17 04:37:00;;;;;;;6.53;3.23;;;5.70;99.90;;;;;;5349875;26;20510;-68
2024/04/17 04:39:28;;;;;;;10.63;3.37;;;5.70;99.90;;;;;;5350784;26;21014;-68
2024/04/17 04:41:58;;;;;;;8.37;3.17;;;5.70;99.90;;;;;;5349573;26;21037;-68
2024/04/17 04:44:25;;;;;;;9.80;3.20;;;5.70;99.90;;;;;;5349450;26;20876;-68
2024/04/17 04:46:56;;;;;;;9.05;4.50;;;5.80;99.90;;;;;;5348555;26;20356;-68
2024/04/17 04:49:24;;;;;;;7.57;3.60;;;5.70;99.90;;;;;;5350023;26;20667;-68
2024/04/17 04:51:56;;;;;;;11.97;3.80;;;5.80;99.90;;;;;;5349115;26;20511;-68
2024/04/17 04:54:24;;;;;;;7.73;3.00;;;5.80;99.90;;;;;;5350421;26;20439;-68
2024/04/17 04:56:54;;;;;;;8.37;3.83;;;5.80;99.90;;;;;;5349092;26;21033;-68
2024/04/17 04:59:21;;;;;;;6.73;3.37;;;5.80;99.90;;;;;;5348582;26;20922;-68
2024/04/17 05:01:51;;;;;;;10.70;4.20;;;5.80;99.90;;;;;;5346773;26;21028;-68
2024/04/17 05:04:19;;;;;;;9.27;3.77;;;5.90;99.90;;;;;;5348837;26;20453;-68
2024/04/17 05:06:49;;;;;;;7.10;3.63;;;5.90;99.90;;;;;;5348895;26;20447;-68
2024/04/17 05:09:19;;;;;;;7.00;4.17;;;5.90;99.90;;;;;;5349872;26;20401;-69
2024/04/17 05:11:50;;;;;;;10.60;4.20;;;5.90;99.90;;;;;;5348776;26;20972;-69
2024/04/17 05:14:17;;;;;;;9.83;3.67;;;5.90;99.90;;;;;;5350282;26;20397;-69
2024/04/17 05:16:47;;;;;;;9.23;3.37;;;5.90;99.90;;;;;;5348518;26;20488;-69
2024/04/17 05:19:14;;;;;;;7.53;3.23;;;5.90;99.90;;;;;;5348296;26;20505;-69
2024/04/17 05:21:44;;;;;;;7.40;3.70;;;6.00;99.90;;;;;;5348988;26;20440;-69
2024/04/17 05:24:11;;;;;;;10.60;3.60;;;6.00;99.90;;;;;;5348630;26;20556;-69
2024/04/17 05:26:44;;;;;;;8.13;3.63;;;6.00;99.90;;;;;;5348749;26;20494;-69
2024/04/17 05:29:14;;;;;;;7.03;4.07;;;6.00;99.90;;;;;;5349806;26;20433;-69
2024/04/17 05:31:41;;;;;;;9.67;4.03;;;6.00;99.90;;;;;;5348416;26;20500;-69
2024/04/17 05:34:11;;;;;;;11.17;4.17;;;6.10;99.90;;;;;;5348475;26;20461;-69
2024/04/17 05:36:39;;;;;;;7.77;3.80;;;6.10;99.90;;;;;;5348364;26;20488;-69
2024/04/17 05:39:09;;;;;;;9.37;4.50;;;6.10;99.90;;;;;;5346476;26;20452;-69
2024/04/17 05:41:36;;;;;;;12.60;3.77;;;6.20;99.90;;;;;;5348281;26;20768;-69
2024/04/17 05:44:09;;;;;;;8.97;4.40;;;6.20;99.90;;;;;;5348333;26;20440;-69
2024/04/17 05:46:36;;;;;;;6.03;3.57;;;6.20;99.90;;;;;;5349677;26;20929;-69
2024/04/17 05:49:06;;;;;;;8.97;4.00;;;6.30;99.90;;;;;;5348253;26;20530;-69
2024/04/17 05:51:34;;;;;;;10.17;3.90;;;6.30;99.90;;;;;;5348461;26;20537;-69
2024/04/17 05:54:04;;;;;;;7.93;4.60;;;6.30;99.90;;;;;;5348269;26;20491;-69
2024/04/17 05:56:31;;;;;;;5.80;3.30;;;6.30;99.90;;;;;;5348232;26;20497;-69
2024/04/17 05:59:01;;;;;;;9.93;4.60;;;6.30;99.90;;;;;;5348178;26;20498;-69
2024/04/17 06:01:31;;;;;;;7.37;4.07;;;6.40;99.90;;;;;;5348624;26;21073;-69
2024/04/17 06:04:01;;;;;;;9.50;3.90;;;6.40;99.90;;;;;;5347927;26;20550;-69
2024/04/17 06:06:28;;;;;;;11.23;3.60;;;6.40;99.90;;;;;;5348031;26;21052;-69
2024/04/17 06:08:58;;;;;;;10.13;4.27;;;6.40;99.90;;;;;;5348058;26;20447;-69
2024/04/17 06:11:26;;;;;;;9.30;4.40;;;6.40;99.90;;;;;;5346770;26;20497;-69
2024/04/17 06:13:56;;;;;;;9.87;4.80;;;6.50;99.90;;;;;;5347857;26;20530;-69
2024/04/17 06:16:23;;;;;;;6.13;4.03;;;6.60;99.90;;;;;;5347749;26;20513;-69
2024/04/17 06:18:56;;;;;;;10.20;4.00;;;6.60;99.90;;;;;;5348089;26;20496;-69
2024/04/17 06:21:23;;;;;;;12.67;4.37;;;6.70;99.90;;;;;;5346422;26;20498;-69
2024/04/17 06:23:53;;;;;;;10.17;4.73;;;6.80;99.90;;;;;;5348212;26;20463;-69
2024/04/17 06:26:20;;;;;;;8.50;4.00;;;6.90;99.90;;;;;;5347925;26;20529;-69
2024/04/17 06:28:50;;;;;;;9.60;4.83;;;7.00;99.90;;;;;;5347792;26;20498;-69
2024/04/17 06:31:18;;;;;;;7.20;4.83;;;7.10;99.90;;;;;;5347905;26;20456;-70
2024/04/17 06:33:48;;;;;;;10.10;5.13;;;7.20;99.90;;;;;;5347553;26;20493;-69
2024/04/17 06:36:20;;;;;;;9.33;4.60;;;7.30;99.90;;;;;;5348003;26;20493;-69
2024/04/17 06:38:48;;;;;;;10.30;4.40;;;7.30;99.90;;;;;;5349121;26;20394;-69
2024/04/17 06:41:18;;;;;;;7.07;4.60;;;7.40;99.90;;;;;;5347578;26;20998;-69
2024/04/17 06:43:45;;;;;;;10.30;4.80;;;7.50;99.90;;;;;;5345877;26;20799;-69
2024/04/17 06:46:15;;;;;;;8.23;4.30;;;7.70;99.90;;;;;;5347864;26;20518;-69
2024/04/17 06:48:42;;;;;;;9.60;5.20;;;7.90;99.90;;;;;;5345908;26;21006;-69
2024/04/17 06:51:12;;;;;;;11.10;5.17;;;8.10;99.90;;;;;;5347757;26;20458;-69
2024/04/17 06:53:42;;;;;;;5.60;4.10;;;8.30;99.90;;;;;;5347474;26;20492;-69
2024/04/17 06:56:13;;;;;;;8.33;4.30;;;8.40;99.90;;;;;;5348960;26;20394;-69
2024/04/17 06:58:40;;;;;;;11.50;3.73;;;8.60;99.90;;;;;;5349399;26;20457;-69
2024/04/17 07:01:10;;;;;;;5.93;3.90;;;8.70;99.90;;;;;;5351711;26;20857;-69
2024/04/17 07:03:38;;;;;;;8.43;4.07;;;8.80;99.90;;;;;;5348967;26;20551;-69
2024/04/17 07:06:08;;;;;;;10.10;4.07;;;8.70;99.90;;;;;;5345833;26;21026;-69
2024/04/17 07:08:36;;;;;;;15.70;4.40;;;8.80;99.90;;;;;;5348941;26;20402;-69
2024/04/17 07:11:09;;;;;;;9.80;4.53;;;8.80;99.90;;;;;;5347251;26;20510;-69
2024/04/17 07:13:37;;;;;;;8.10;3.63;;;8.90;99.90;;;;;;5348562;26;20398;-68
2024/04/17 07:16:09;;;;;;;11.37;4.37;;;8.90;99.90;;;;;;5347366;26;20564;-69
2024/04/17 07:18:36;;;;;;;7.60;4.03;;;9.00;99.90;;;;;;5348324;26;20836;-70
2024/04/17 07:21:07;;;;;;;12.33;4.50;;;9.20;99.90;;;;;;5346850;26;20454;-69
2024/04/17 07:23:34;;;;;;;8.07;3.77;;;9.30;99.90;;;;;;5349083;26;20514;-69
2024/04/17 07:26:04;;;;;;;7.13;4.00;;;9.30;99.90;;;;;;5350036;26;21035;-70
2024/04/17 07:28:34;;;;;;;8.13;3.90;;;9.40;99.90;;;;;;5350272;26;20449;-69
2024/04/17 07:31:04;;;;;;;13.17;4.53;;;9.30;99.90;;;;;;5348256;26;20465;-70
2024/04/17 07:33:31;;;;;;;8.50;3.87;;;9.30;99.90;;;;;;5350397;26;20446;-69
2024/04/17 07:36:02;;;;;;;10.83;4.83;;;9.30;99.90;;;;;;5349963;26;20445;-69
2024/04/17 07:38:30;;;;;;;10.60;6.07;;;9.20;99.90;;;;;;5351233;26;20483;-69
2024/04/17 07:41:00;;;;;;;8.73;3.93;;;9.30;99.90;;;;;;5350017;26;20533;-70
2024/04/17 07:43:30;;;;;;;10.20;4.70;;;9.30;99.90;;;;;;5351824;26;20417;-70
2024/04/17 07:46:04;;;;;;;8.70;4.43;;;9.30;99.90;;;;;;5351851;26;20449;-69
2024/04/17 07:48:32;;;;;;;8.07;4.10;;;9.30;99.90;;;;;;5351953;26;20497;-69
2024/04/17 07:51:02;;;;;;;8.37;4.10;;;9.30;99.90;;;;;;5350479;26;20457;-69
2024/04/17 07:53:30;;;;;;;8.03;4.43;;;9.30;99.90;;;;;;5350676;26;20438;-69
2024/04/17 07:56:03;;;;;;;10.67;4.27;;;9.30;99.90;;;;;;5351264;26;20445;-69
2024/04/17 07:58:31;;;;;;;10.00;4.93;;;9.30;99.90;;;;;;5350629;26;20796;-69
2024/04/17 08:01:04;;;;;;;8.50;4.07;;;9.30;99.90;;;;;;5350432;26;20497;-69
2024/04/17 08:03:31;;;;;;;7.23;4.20;;;9.30;99.90;;;;;;5351498;26;20414;-68
2024/04/17 08:06:01;;;;;;;7.43;4.30;;;9.40;99.90;;;;;;5348830;26;20496;-69
2024/04/17 08:08:29;;;;;;;9.50;4.80;;;9.50;99.90;;;;;;5350321;26;20561;-69
2024/04/17 08:10:58;;;;;;;12.80;5.23;;;9.60;99.90;;;;;;5349095;26;20975;-69
2024/04/17 08:13:26;;;;;;;7.70;4.67;;;9.60;99.90;;;;;;5348464;26;20488;-69
2024/04/17 08:15:56;;;;;;;8.13;4.37;;;9.70;99.90;;;;;;5348648;26;20457;-69
2024/04/17 08:18:26;;;;;;;10.13;5.27;;;9.70;99.90;;;;;;5350068;26;20442;-69
2024/04/17 08:20:58;;;;;;;9.53;4.90;;;9.70;99.90;;;;;;5350073;26;20989;-69
2024/04/17 08:23:25;;;;;;;6.47;4.00;;;9.80;99.90;;;;;;5350934;26;20509;-69
2024/04/17 08:26:01;;;;;;;7.23;4.27;;;9.80;99.90;;;;;;5350991;26;20438;-69
2024/04/17 08:28:29;;;;;;;7.67;3.10;;;10.00;99.90;;;;;;5348368;26;20454;-69
2024/04/17 08:30:59;;;;;;;8.13;3.57;;;10.10;99.90;;;;;;5349891;26;20461;-68
2024/04/17 08:33:29;;;;;;;6.80;3.70;;;10.20;99.90;;;;;;5351089;26;20498;-69
2024/04/17 08:35:59;;;;;;;7.40;4.00;;;10.30;99.90;;;;;;5350059;26;20432;-69
2024/04/17 08:38:27;;;;;;;8.43;3.57;;;10.40;99.90;;;;;;5349978;26;20445;-69
2024/04/17 08:40:58;;;;;;;5.10;3.40;;;10.40;99.90;;;;;;5350009;26;20453;-69
2024/04/17 08:43:26;;;;;;;7.80;4.07;;;10.30;99.90;;;;;;5349860;26;20496;-69
2024/04/17 08:45:58;;;;;;;8.90;4.17;;;10.30;99.90;;;;;;5349730;26;20963;-70
2024/04/17 08:48:30;;;;;;;7.57;3.90;;;10.30;99.90;;;;;;5350931;26;21014;-69
2024/04/17 08:51:01;;;;;;;6.93;3.53;;;10.30;99.90;;;;;;5347239;26;20473;-69
2024/04/17 08:53:31;;;;;;;10.77;3.80;;;10.20;99.90;;;;;;5349835;26;20399;-69
2024/04/17 08:56:01;;;;;;;4.13;2.33;;;10.30;99.90;;;;;;5348742;26;20497;-69
2024/04/17 08:58:32;;;;;;;6.30;2.93;;;10.30;99.90;;;;;;5348598;26;20442;-69
2024/04/17 09:01:02;;;;;;;10.23;3.80;;;10.30;99.90;;;;;;5346798;26;20558;-69
2024/04/17 09:03:38;;;;;;;6.50;2.90;;;10.20;99.90;;;;;;5349808;26;20740;-69
2024/04/17 09:06:07;;;;;;;7.63;2.90;;;10.30;99.90;;;;;;5349731;26;20437;-69
2024/04/17 09:08:38;;;;;;;6.10;3.30;;;10.30;99.90;;;;;;5348423;26;20450;-69
2024/04/17 09:11:08;;;;;;;5.30;3.07;;;10.30;99.90;;;;;;5348405;26;20453;-69
2024/04/17 09:13:39;;;;;;;5.60;3.30;;;10.40;99.90;;;;;;5349591;26;20399;-69
2024/04/17 09:16:06;;;;;;;7.60;3.40;;;10.40;99.90;;;;;;5349040;26;20974;-69
2024/04/17 09:18:40;;;;;;;7.47;3.70;;;10.50;99.90;;;;;;5348292;26;20501;-69
2024/04/17 09:21:10;;;;;;;9.00;2.97;;;10.60;99.90;;;;;;5349502;26;20553;-69
2024/04/17 09:23:40;;;;;;;6.67;3.20;;;10.70;99.90;;;;;;5348232;26;20514;-69
2024/04/17 09:26:14;;;;;;;4.20;2.87;;;10.80;99.90;;;;;;5348300;26;20442;-69
2024/04/17 09:28:44;;;;;;;6.20;3.10;;;10.90;99.90;;;;;;5349560;26;20398;-69
2024/04/17 09:31:12;;;;;;;4.70;2.93;;;11.10;99.90;;;;;;5348281;26;20517;-69
2024/04/17 09:33:48;;;;;;;5.87;2.90;;;11.20;99.90;;;;;;5348343;26;20494;-69
2024/04/17 09:36:15;;;;;;;3.87;2.30;;;11.30;99.90;;;;;;5346579;26;20461;-69
2024/04/17 09:38:45;;;;;;;3.83;1.83;;;11.40;99.90;;;;;;5348263;26;20484;-69
2024/04/17 09:41:13;;;;;;;4.50;2.03;;;11.40;99.90;;;;;;5348203;26;20540;-69
2024/04/17 09:43:45;;;;;;;2.87;1.70;;;11.20;99.90;;;;;;5348257;26;20529;-69
2024/04/17 09:46:15;;;;;;;5.00;2.20;;;11.10;99.90;;;;;;5349379;26;20395;-69
2024/04/17 09:48:53;;;;;;;4.43;2.20;;;10.90;99.90;;;;;;5348104;26;20522;-69
2024/04/17 09:51:21;;;;;;;5.13;2.93;;;10.80;99.90;;;;;;5349753;26;20493;-69
2024/04/17 09:53:58;;;;;;;3.90;3.40;;;10.70;99.90;;;;;;5347980;26;20442;-70
2024/04/17 09:56:26;;;;;;;9.93;3.60;;;10.60;99.90;;;;;;5349620;26;20402;-70
2024/04/17 09:58:57;;;;;;;5.03;2.73;;;10.60;99.90;;;;;;5347941;26;20446;-70
2024/04/17 10:01:39;;;;;;;4.03;3.00;;;10.50;99.90;;;;;;5349383;26;20501;-69
2024/04/17 10:04:09;;;;;;;4.97;2.80;;;10.50;99.90;;;;;;5349622;26;20832;-69
2024/04/17 10:06:44;;;;;;;3.50;2.60;;;10.40;99.90;;;;;;5349557;26;20437;-70
2024/04/17 10:09:13;;;;;;;3.90;2.30;;;10.40;99.90;;;;;;5349248;26;20394;-69
2024/04/17 10:11:43;;;;;;;3.70;2.20;;;10.30;99.90;;;;;;5346826;26;20373;-69
2024/04/17 10:14:13;;;;;;;2.77;1.67;;;10.30;99.90;;;;;;5349280;26;20192;-69
2024/04/17 10:16:43;;;;;;;4.70;1.70;;;10.20;99.90;;;;;;5347853;26;20453;-70
2024/04/17 10:19:14;;;;;;;3.60;1.70;;;10.10;99.90;;;;;;5349055;26;20402;-70
2024/04/17 10:21:45;;;;;;;2.57;1.60;;;10.00;99.90;;;;;;5349321;26;20441;-70
2024/04/17 10:24:12;;;;;;;2.70;1.40;;;9.80;99.90;;;;;;5347862;26;21029;-70
2024/04/17 10:26:49;;;;;;;1.93;1.23;;;9.70;99.90;;;;;;5347962;26;20453;-70
2024/04/17 10:29:18;;;;;;;1.87;1.20;;;9.50;99.90;;;;;;5345960;26;20490;-70
2024/04/17 10:32:12;;;;;;;2.10;1.30;;;9.40;99.90;;;;;;5347772;26;20863;-70
2024/04/17 10:34:46;;;;;;;2.37;1.47;;;9.20;99.90;;;;;;5345532;26;20573;-70
2024/04/17 10:37:17;;;;;;;2.50;1.50;;;9.10;99.90;;;;;;5349546;26;20406;-70
2024/04/17 10:39:46;;;;;;;4.00;1.80;;;9.00;99.90;;;;;;5348593;26;20561;-70
2024/04/17 10:42:18;;;;;;;3.27;1.50;;;8.90;99.90;;;;;;5348029;26;20449;-70
2024/04/17 10:44:48;;;;;;;5.23;1.93;;;8.90;99.90;;;;;;5350458;26;20435;-70
2024/04/17 10:47:22;;;;;;;2.83;2.00;;;8.80;99.90;;;;;;5351686;26;20706;-70
2024/04/17 10:50:00;;;;;;;3.53;1.80;;;8.70;99.90;;;;;;5348330;26;20476;-70
2024/04/17 10:52:32;;;;;;;2.80;1.70;;;8.70;99.90;;;;;;5350231;26;20504;-69
2024/04/17 10:55:01;;;;;;;2.90;1.73;;;8.70;99.90;;;;;;5348163;26;20500;-69
2024/04/17 10:57:31;;;;;;;3.00;1.97;;;8.60;99.90;;;;;;5347270;26;20446;-69
2024/04/17 10:59:59;;;;;;;3.27;1.80;;;8.60;99.90;;;;;;5347099;26;20481;-69
2024/04/17 11:02:30;;;;;;;3.60;1.97;;;8.70;99.90;;;;;;5346415;26;20509;-69
2024/04/17 11:05:01;;;;;;;3.67;2.33;;;8.70;99.90;;;;;;5348954;26;20438;-69
2024/04/17 11:07:32;;;;;;;4.83;2.73;;;8.70;99.90;;;;;;5349172;26;20402;-69
2024/04/17 11:10:00;;;;;;;10.17;7.80;;;8.80;99.90;;;;;;5347504;26;20465;-69
2024/04/17 11:12:30;;;;;;;20.63;18.60;;;8.80;99.90;;;;;;5345939;26;20453;-69
2024/04/17 11:15:02;;;;;;;9.60;7.87;;;8.80;99.90;;;;;;5347279;26;20446;-69
2024/04/17 11:17:32;;;;;;;9.97;8.70;;;8.80;99.90;;;;;;5348477;26;20402;-69
2024/04/17 11:20:04;;;;;;;5.73;4.00;;;8.80;99.90;;;;;;5345142;26;20513;-69
2024/04/17 11:22:37;;;;;;;5.43;3.13;;;8.90;99.90;;;;;;5348162;26;20449;-69
2024/04/17 11:25:05;;;;;;;3.50;2.17;;;8.90;99.90;;;;;;5347368;26;20461;-69
2024/04/17 11:27:35;;;;;;;4.20;2.10;;;8.90;99.90;;;;;;5346965;26;20453;-69
2024/04/17 11:30:03;;;;;;;2.77;1.90;;;8.90;99.90;;;;;;5347171;26;20494;-69
2024/04/17 11:32:33;;;;;;;3.07;1.70;;;9.00;99.90;;;;;;5346893;26;20787;-69
2024/04/17 11:35:14;;;;;;;3.40;1.97;;;9.00;99.90;;;;;;5347997;26;20468;-69
2024/04/17 11:37:47;;;;;;;2.70;1.63;;;9.00;99.90;;;;;;5345218;26;20622;-69
2024/04/17 11:40:15;;;;;;;2.80;1.90;;;8.90;99.90;;;;;;5347162;26;20488;-69
2024/04/17 11:42:45;;;;;;;3.00;1.97;;;8.90;99.90;;;;;;5346679;26;20871;-69
2024/04/17 11:45:13;;;;;;;4.90;2.80;;;8.90;99.90;;;;;;5344918;26;20461;-69
2024/04/17 11:47:43;;;;;;;5.03;2.77;;;8.90;99.90;;;;;;5346704;26;20487;-69
2024/04/17 11:50:13;;;;;;;6.53;2.97;;;8.90;99.90;;;;;;5344625;26;20517;-69
2024/04/17 11:52:43;;;;;;;4.17;3.13;;;8.90;99.90;;;;;;5346479;26;21082;-69
2024/04/17 11:55:14;;;;;;;4.83;3.30;;;8.90;99.90;;;;;;5346247;26;20557;-69
2024/04/17 11:57:41;;;;;;;4.30;3.50;;;8.90;99.90;;;;;;5346821;26;20614;-68
2024/04/17 12:00:12;;;;;;;4.40;2.60;;;8.90;99.90;;;;;;5344458;26;20473;-69
2024/04/17 12:02:39;;;;;;;5.07;2.80;;;8.90;99.90;;;;;;5347505;26;20744;-68
2024/04/17 12:05:10;;;;;;;5.10;3.13;;;8.90;99.90;;;;;;5346155;26;20493;-69
2024/04/17 12:07:41;;;;;;;3.20;2.60;;;8.90;99.90;;;;;;5346781;26;20442;-69
2024/04/17 12:10:12;;;;;;;4.97;2.63;;;8.90;99.90;;;;;;5347908;26;20564;-69
2024/04/17 12:12:40;;;;;;;4.03;2.43;;;8.90;99.90;;;;;;5348187;26;20454;-69
2024/04/17 12:15:10;;;;;;;4.13;2.53;;;8.90;99.90;;;;;;5347770;26;20453;-69
2024/04/17 12:17:37;;;;;;;4.30;2.70;;;8.90;99.90;;;;;;5350625;26;20442;-69
2024/04/17 12:20:11;;;;;;;6.50;2.43;;;8.90;99.90;;;;;;5350460;26;20450;-69
2024/04/17 12:22:41;;;;;;;5.30;2.70;;;9.00;99.90;;;;;;5350723;26;20417;-69
2024/04/17 12:27:57;;;;;;;4.47;2.60;;;9.00;99.90;;;;;;5351092;26;20497;-69
2024/04/17 12:30:27;;;;;;;4.30;3.00;;;9.10;99.90;;;;;;5349696;26;20994;-69
2024/04/17 12:33:00;;;;;;;4.40;2.97;;;9.10;99.90;;;;;;5349551;26;20534;-69
2024/04/17 12:35:30;;;;;;;4.10;3.50;;;9.20;99.90;;;;;;5347625;26;20922;-69
2024/04/17 12:38:03;;;;;;;4.40;2.87;;;9.20;99.90;;;;;;5347487;26;20783;-69
2024/04/17 12:40:33;;;;;;;4.50;3.43;;;9.30;99.90;;;;;;5350003;26;20461;-69
2024/04/17 12:43:04;;;;;;;4.50;3.50;;;9.30;99.90;;;;;;5347657;26;20450;-69
2024/04/17 12:45:34;;;;;;;4.10;3.77;;;9.40;99.90;;;;;;5350376;26;20748;-69
2024/04/17 12:48:04;;;;;;;5.43;3.30;;;9.50;99.90;;;;;;5349188;26;20446;-68
2024/04/17 12:50:34;;;;;;;3.93;3.50;;;9.50;99.90;;;;;;5349004;26;20450;-69
2024/04/17 12:53:08;;;;;;;3.67;3.17;;;9.60;99.90;;;;;;5349261;26;20494;-69
2024/04/17 12:55:38;;;;;;;5.00;3.30;;;9.60;99.90;;;;;;5350318;26;20489;-69
2024/04/17 12:58:05;;;;;;;3.60;2.43;;;9.70;99.90;;;;;;5348928;26;20493;-69
2024/04/17 13:00:35;;;;;;;4.10;3.50;;;9.80;99.90;;;;;;5348734;26;20449;-69
2024/04/17 13:03:03;;;;;;;4.33;2.83;;;9.80;99.90;;;;;;5348900;26;20501;-68
2024/04/17 13:05:33;;;;;;;4.33;3.03;;;9.90;99.90;;;;;;5347062;26;20509;-69
2024/04/17 13:08:03;;;;;;;3.90;2.73;;;10.00;99.90;;;;;;5348857;26;20501;-69